Time;durP1;ratioP1;P1;durP2;ratioP2;P2;SDS_P1;SDS_P2;PMS_P1;PMS_P2;Temp;Humidity;BMP_temperature;BMP_pressure;BME280_temperature;BME280_humidity;BME280_pressure;Samples;Min_cycle;Max_cycle;Signal;HPM_P1;HPM_P2
2023/12/12 00:02:23;;;;;;;10.77;5.67;;;;;;;;;;6308774;22;20139;-58
2023/12/12 00:04:49;;;;;;;10.00;5.53;;;;;;;;;;6283001;22;20521;-54
2023/12/12 00:07:15;;;;;;;10.50;6.03;;;;;;;;;;6281936;22;20144;-58
2023/12/12 00:09:41;;;;;;;8.70;5.87;;;;;;;;;;6282158;22;20167;-58
2023/12/12 00:12:07;;;;;;;9.13;6.53;;;;;;;;;;6309090;22;20128;-56
2023/12/12 00:14:33;;;;;;;13.63;7.43;;;;;;;;;;6283282;22;20151;-57
2023/12/12 00:16:59;;;;;;;12.30;6.57;;;;;;;;;;6309292;22;20155;-57
2023/12/12 00:19:26;;;;;;;10.50;6.20;;;;;;;;;;6281961;22;20146;-58
2023/12/12 00:21:52;;;;;;;9.03;6.40;;;;;;;;;;6281955;22;20139;-58
2023/12/12 00:24:18;;;;;;;13.23;6.73;;;;;;;;;;6281962;22;20464;-57
2023/12/12 00:26:44;;;;;;;14.13;7.03;;;;;;;;;;6281759;22;20139;-54
2023/12/12 00:29:10;;;;;;;12.97;7.20;;;;;;;;;;6308307;22;20135;-57
2023/12/12 00:31:36;;;;;;;12.53;7.03;;;;;;;;;;6281098;22;20273;-58
2023/12/12 00:34:02;;;;;;;9.97;6.50;;;;;;;;;;6282021;22;20218;-58
2023/12/12 00:36:28;;;;;;;12.40;7.33;;;;;;;;;;6282366;22;20477;-56
2023/12/12 00:38:54;;;;;;;11.07;6.03;;;;;;;;;;6275578;22;20250;-56
2023/12/12 00:41:32;;;;;;;11.57;6.13;;;;;;;;;;6276687;22;20702;-56
2023/12/12 00:43:58;;;;;;;8.03;6.53;;;;;;;;;;6251736;22;20159;-56
2023/12/12 00:46:26;;;;;;;8.93;5.93;;;;;;;;;;6276888;22;20220;-56
2023/12/12 00:48:52;;;;;;;9.83;5.77;;;;;;;;;;6277203;22;20128;-58
2023/12/12 00:51:18;;;;;;;13.50;7.00;;;;;;;;;;6277823;22;20201;-57
2023/12/12 00:53:44;;;;;;;12.20;6.80;;;;;;;;;;6276898;22;20132;-57
2023/12/12 00:56:11;;;;;;;10.10;7.43;;;;;;;;;;6277423;22;20133;-55
2023/12/12 00:58:38;;;;;;;11.63;7.40;;;;;;;;;;6276454;22;20133;-58
2023/12/12 01:01:05;;;;;;;13.23;7.63;;;;;;;;;;6278000;22;20171;-58
2023/12/12 01:03:32;;;;;;;11.80;8.27;;;;;;;;;;6278251;22;20132;-58
2023/12/12 01:05:58;;;;;;;14.10;8.27;;;;;;;;;;6277644;22;20129;-58
2023/12/12 01:08:24;;;;;;;10.63;7.53;;;;;;;;;;6276821;22;20132;-55
2023/12/12 01:10:50;;;;;;;14.30;8.70;;;;;;;;;;6276901;22;20508;-58
2023/12/12 01:13:16;;;;;;;16.03;8.87;;;;;;;;;;6277253;22;20140;-58
2023/12/12 01:15:43;;;;;;;15.23;9.60;;;;;;;;;;6277734;22;20144;-55
2023/12/12 01:18:11;;;;;;;15.50;9.23;;;;;;;;;;6277751;22;20221;-58
2023/12/12 01:20:37;;;;;;;17.90;9.30;;;;;;;;;;6276990;22;20479;-58
2023/12/12 01:23:03;;;;;;;17.33;9.73;;;;;;;;;;6277844;22;20510;-58
2023/12/12 01:25:30;;;;;;;15.40;9.57;;;;;;;;;;6276521;22;20171;-58
2023/12/12 01:27:56;;;;;;;19.83;9.80;;;;;;;;;;6277842;22;20140;-57
2023/12/12 01:30:22;;;;;;;15.27;9.37;;;;;;;;;;6277261;22;20668;-57
2023/12/12 01:32:48;;;;;;;17.67;8.90;;;;;;;;;;6277206;22;20172;-58
2023/12/12 01:35:15;;;;;;;16.13;8.70;;;;;;;;;;6277563;22;20266;-58
2023/12/12 01:37:43;;;;;;;14.60;7.97;;;;;;;;;;6276386;22;20488;-56
2023/12/12 01:40:09;;;;;;;14.37;8.80;;;;;;;;;;6282890;22;20167;-57
2023/12/12 01:42:35;;;;;;;17.03;8.97;;;;;;;;;;6281935;22;20608;-58
2023/12/12 01:45:01;;;;;;;16.40;8.43;;;;;;;;;;6281059;22;20147;-58
2023/12/12 01:47:28;;;;;;;14.47;8.20;;;;;;;;;;6282877;22;20144;-56
2023/12/12 01:49:54;;;;;;;15.40;8.57;;;;;;;;;;6282178;22;20174;-58
2023/12/12 01:52:22;;;;;;;15.47;8.20;;;;;;;;;;6281611;22;20606;-57
2023/12/12 01:54:50;;;;;;;14.43;8.33;;;;;;;;;;6281695;22;20131;-58
2023/12/12 01:57:20;;;;;;;15.73;8.83;;;;;;;;;;6281289;22;20161;-56
2023/12/12 01:59:48;;;;;;;15.57;8.47;;;;;;;;;;6281122;22;20148;-58
2023/12/12 02:02:16;;;;;;;17.53;8.97;;;;;;;;;;6281407;22;20494;-56
2023/12/12 02:04:45;;;;;;;16.60;8.63;;;;;;;;;;6307487;22;20419;-58
2023/12/12 02:07:14;;;;;;;13.50;7.67;;;;;;;;;;6281410;22;20215;-56
2023/12/12 02:09:40;;;;;;;14.93;8.53;;;;;;;;;;6278658;22;20159;-56
2023/12/12 02:12:06;;;;;;;19.33;9.73;;;;;;;;;;6276532;22;20427;-56
2023/12/12 02:14:35;;;;;;;17.03;9.30;;;;;;;;;;6275053;22;20231;-53
2023/12/12 02:17:01;;;;;;;17.10;9.00;;;;;;;;;;6281004;22;20159;-58
2023/12/12 02:19:46;;;;;;;18.73;8.33;;;;;;;;;;6281388;22;20228;-53
2023/12/12 02:22:12;;;;;;;16.90;9.03;;;;;;;;;;6281603;22;20186;-55
2023/12/12 02:24:38;;;;;;;19.00;9.60;;;;;;;;;;6307281;22;20128;-58
2023/12/12 02:27:04;;;;;;;20.13;9.50;;;;;;;;;;6281544;22;20139;-56
2023/12/12 02:29:31;;;;;;;18.57;9.27;;;;;;;;;;6281047;22;20175;-56
2023/12/12 02:31:57;;;;;;;20.47;10.43;;;;;;;;;;6280098;22;20147;-58
2023/12/12 02:34:23;;;;;;;23.77;10.97;;;;;;;;;;6281331;22;20178;-56
2023/12/12 02:36:51;;;;;;;18.77;9.87;;;;;;;;;;6307920;22;20120;-57
2023/12/12 02:39:17;;;;;;;19.60;10.07;;;;;;;;;;6275584;22;20830;-53
2023/12/12 02:41:44;;;;;;;20.33;11.20;;;;;;;;;;6275610;22;20179;-58
2023/12/12 02:44:10;;;;;;;20.53;11.40;;;;;;;;;;6277335;22;20144;-55
2023/12/12 02:46:39;;;;;;;18.93;10.63;;;;;;;;;;6277184;22;20133;-58
2023/12/12 02:49:05;;;;;;;20.50;12.00;;;;;;;;;;6276819;22;20140;-58
2023/12/12 02:51:32;;;;;;;22.63;12.13;;;;;;;;;;6276243;22;20155;-54
2023/12/12 02:53:58;;;;;;;22.00;10.53;;;;;;;;;;6274979;22;20423;-58
2023/12/12 02:56:24;;;;;;;20.13;10.87;;;;;;;;;;6276377;22;20483;-57
2023/12/12 02:58:50;;;;;;;24.53;11.90;;;;;;;;;;6275895;22;20140;-58
2023/12/12 03:01:16;;;;;;;25.43;12.33;;;;;;;;;;6275344;22;20180;-58
2023/12/12 03:03:43;;;;;;;20.83;12.47;;;;;;;;;;6274889;22;20548;-55
2023/12/12 03:06:09;;;;;;;25.77;13.73;;;;;;;;;;6275855;22;20194;-58
2023/12/12 03:08:35;;;;;;;23.93;13.33;;;;;;;;;;6275284;22;20510;-58
2023/12/12 03:11:01;;;;;;;25.13;12.60;;;;;;;;;;6275152;22;20172;-55
2023/12/12 03:13:28;;;;;;;22.63;11.80;;;;;;;;;;6276770;22;20499;-58
2023/12/12 03:15:54;;;;;;;26.67;12.73;;;;;;;;;;6273080;22;20523;-58
2023/12/12 03:18:20;;;;;;;24.83;12.77;;;;;;;;;;6270997;22;20223;-57
2023/12/12 03:20:46;;;;;;;23.10;13.10;;;;;;;;;;6270128;22;20236;-56
2023/12/12 03:23:12;;;;;;;25.83;12.70;;;;;;;;;;6270317;22;20148;-58
2023/12/12 03:25:38;;;;;;;27.33;14.73;;;;;;;;;;6269424;22;20167;-54
2023/12/12 03:28:04;;;;;;;26.17;13.50;;;;;;;;;;6269867;22;20151;-58
2023/12/12 03:30:30;;;;;;;23.37;12.27;;;;;;;;;;6269335;22;20613;-58
2023/12/12 03:32:56;;;;;;;22.43;12.87;;;;;;;;;;6270292;22;20168;-58
2023/12/12 03:35:22;;;;;;;26.53;13.83;;;;;;;;;;6273223;22;20148;-55
2023/12/12 03:37:48;;;;;;;25.50;13.37;;;;;;;;;;6274610;22;20151;-57
2023/12/12 03:40:14;;;;;;;24.70;13.20;;;;;;;;;;6278573;22;20153;-57
2023/12/12 03:42:40;;;;;;;24.27;13.97;;;;;;;;;;6278010;22;20142;-56
2023/12/12 03:45:06;;;;;;;26.83;13.33;;;;;;;;;;6279312;22;20190;-58
2023/12/12 03:47:32;;;;;;;22.90;12.50;;;;;;;;;;6278540;22;20231;-57
2023/12/12 03:49:59;;;;;;;24.37;12.40;;;;;;;;;;6278682;22;20175;-56
2023/12/12 03:52:25;;;;;;;25.53;12.33;;;;;;;;;;6278785;22;20136;-58
2023/12/12 03:54:51;;;;;;;25.63;13.70;;;;;;;;;;6304453;22;20147;-58
2023/12/12 03:57:17;;;;;;;25.90;13.27;;;;;;;;;;6279649;22;20189;-58
2023/12/12 03:59:44;;;;;;;25.17;12.73;;;;;;;;;;6279911;22;20537;-58
2023/12/12 04:02:10;;;;;;;25.00;13.50;;;;;;;;;;6304974;22;20391;-57
2023/12/12 04:04:36;;;;;;;28.43;14.03;;;;;;;;;;6279319;22;20594;-57
2023/12/12 04:07:03;;;;;;;25.30;12.40;;;;;;;;;;6278793;22;20494;-52
2023/12/12 04:09:29;;;;;;;25.70;13.70;;;;;;;;;;6278044;22;20167;-57
2023/12/12 04:11:55;;;;;;;26.93;13.80;;;;;;;;;;6303096;22;20131;-52
2023/12/12 04:14:21;;;;;;;27.03;13.93;;;;;;;;;;6275108;22;20212;-55
2023/12/12 04:16:47;;;;;;;25.67;13.93;;;;;;;;;;6306721;22;20148;-58
2023/12/12 04:19:13;;;;;;;25.60;13.40;;;;;;;;;;6280792;22;20431;-57
2023/12/12 04:21:43;;;;;;;25.90;13.53;;;;;;;;;;6307653;22;20150;-57
2023/12/12 04:24:09;;;;;;;25.77;13.83;;;;;;;;;;6280620;22;20138;-59
2023/12/12 04:26:47;;;;;;;28.93;14.77;;;;;;;;;;6283398;22;20140;-56
2023/12/12 04:29:13;;;;;;;27.60;14.67;;;;;;;;;;6280611;22;20537;-58
2023/12/12 04:31:39;;;;;;;26.33;13.90;;;;;;;;;;6281752;22;20243;-58
2023/12/12 04:34:05;;;;;;;26.53;13.60;;;;;;;;;;6281856;22;20136;-58
2023/12/12 04:36:33;;;;;;;23.30;13.03;;;;;;;;;;6281558;22;20155;-59
2023/12/12 04:38:59;;;;;;;25.17;13.73;;;;;;;;;;6276268;22;20644;-58
2023/12/12 04:41:25;;;;;;;24.70;12.07;;;;;;;;;;6276569;22;20152;-56
2023/12/12 04:43:51;;;;;;;24.90;12.90;;;;;;;;;;6276716;22;20152;-59
2023/12/12 04:46:20;;;;;;;22.23;11.77;;;;;;;;;;6275932;22;20623;-57
2023/12/12 04:48:46;;;;;;;17.90;10.77;;;;;;;;;;6275179;22;20159;-56
2023/12/12 04:51:13;;;;;;;20.53;11.37;;;;;;;;;;6275208;22;20262;-54
2023/12/12 04:53:39;;;;;;;17.33;10.57;;;;;;;;;;6276281;22;20125;-54
2023/12/12 04:56:05;;;;;;;20.27;11.33;;;;;;;;;;6277569;22;20494;-53
2023/12/12 04:58:31;;;;;;;19.17;11.60;;;;;;;;;;6275577;22;20143;-55
2023/12/12 05:00:57;;;;;;;20.63;10.43;;;;;;;;;;6275351;22;20152;-55
2023/12/12 05:03:23;;;;;;;19.23;10.63;;;;;;;;;;6275658;22;20470;-52
2023/12/12 05:05:49;;;;;;;17.40;9.97;;;;;;;;;;6274239;22;20152;-56
2023/12/12 05:08:15;;;;;;;18.60;10.07;;;;;;;;;;6275208;22;20429;-57
2023/12/12 05:10:42;;;;;;;19.13;10.37;;;;;;;;;;6275092;22;20540;-55
2023/12/12 05:13:08;;;;;;;18.77;9.90;;;;;;;;;;6277473;22;20227;-56
2023/12/12 05:15:34;;;;;;;21.00;11.27;;;;;;;;;;6276268;22;20148;-55
2023/12/12 05:18:00;;;;;;;22.17;12.00;;;;;;;;;;6276040;22;20198;-57
2023/12/12 05:20:26;;;;;;;18.90;10.60;;;;;;;;;;6276999;22;20218;-56
2023/12/12 05:22:52;;;;;;;17.83;10.87;;;;;;;;;;6277160;22;20137;-57
2023/12/12 05:25:18;;;;;;;21.97;10.83;;;;;;;;;;6275350;22;20224;-57
2023/12/12 05:27:44;;;;;;;17.50;9.93;;;;;;;;;;6275282;22;20148;-55
2023/12/12 05:30:12;;;;;;;20.40;10.97;;;;;;;;;;6274115;22;20176;-55
2023/12/12 05:32:39;;;;;;;21.13;10.30;;;;;;;;;;6275595;22;20737;-55
2023/12/12 05:35:07;;;;;;;22.90;10.40;;;;;;;;;;6275278;22;20159;-57
2023/12/12 05:37:33;;;;;;;21.77;10.97;;;;;;;;;;6275678;22;20155;-56
2023/12/12 05:39:59;;;;;;;19.57;10.80;;;;;;;;;;6275943;22;20551;-55
2023/12/12 05:42:26;;;;;;;23.50;10.67;;;;;;;;;;6275990;22;20611;-53
2023/12/12 05:44:52;;;;;;;19.83;10.07;;;;;;;;;;6276872;22;20645;-55
2023/12/12 05:47:18;;;;;;;22.10;10.57;;;;;;;;;;6275687;22;20273;-55
2023/12/12 05:49:44;;;;;;;18.73;10.57;;;;;;;;;;6275918;22;20176;-56
2023/12/12 05:52:10;;;;;;;21.57;10.80;;;;;;;;;;6275745;22;20144;-56
2023/12/12 05:54:36;;;;;;;21.20;10.93;;;;;;;;;;6274454;22;20147;-56
2023/12/12 05:57:02;;;;;;;21.10;9.97;;;;;;;;;;6272561;22;20137;-55
2023/12/12 05:59:28;;;;;;;19.20;11.20;;;;;;;;;;6272196;22;20152;-56
2023/12/12 06:01:55;;;;;;;20.90;10.93;;;;;;;;;;6272839;22;20148;-57
2023/12/12 06:04:21;;;;;;;23.13;11.60;;;;;;;;;;6273926;22;20601;-57
2023/12/12 06:06:47;;;;;;;22.67;11.73;;;;;;;;;;6272669;22;20135;-57
2023/12/12 06:09:13;;;;;;;22.53;11.27;;;;;;;;;;6271569;22;20642;-56
2023/12/12 06:11:40;;;;;;;21.37;11.20;;;;;;;;;;6272492;22;20576;-56
2023/12/12 06:14:06;;;;;;;20.70;10.63;;;;;;;;;;6271524;22;20698;-57
2023/12/12 06:16:32;;;;;;;21.00;10.40;;;;;;;;;;6271780;22;20140;-56
2023/12/12 06:18:59;;;;;;;19.80;10.60;;;;;;;;;;6273845;22;20128;-56
2023/12/12 06:21:25;;;;;;;24.93;12.17;;;;;;;;;;6273389;22;20140;-57
2023/12/12 06:23:51;;;;;;;25.87;12.43;;;;;;;;;;6274933;22;20140;-57
2023/12/12 06:26:17;;;;;;;20.90;11.60;;;;;;;;;;6275276;22;20140;-56
2023/12/12 06:28:43;;;;;;;20.93;11.27;;;;;;;;;;6274839;22;20151;-56
2023/12/12 06:31:09;;;;;;;21.73;11.23;;;;;;;;;;6275274;22;20187;-57
2023/12/12 06:33:35;;;;;;;20.03;10.17;;;;;;;;;;6274985;22;20133;-55
2023/12/12 06:36:01;;;;;;;23.70;11.53;;;;;;;;;;6274746;22;20148;-56
2023/12/12 06:38:28;;;;;;;19.20;10.97;;;;;;;;;;6274238;22;20188;-56
2023/12/12 06:40:54;;;;;;;23.27;11.27;;;;;;;;;;6272624;22;20155;-56
2023/12/12 06:43:20;;;;;;;22.80;11.67;;;;;;;;;;6271756;22;20148;-53
2023/12/12 06:45:46;;;;;;;27.80;11.93;;;;;;;;;;6272581;22;20144;-57
2023/12/12 06:48:15;;;;;;;20.33;11.13;;;;;;;;;;6271859;22;20534;-57
2023/12/12 06:50:40;;;;;;;24.27;12.50;;;;;;;;;;6272322;22;20172;-55
2023/12/12 06:53:07;;;;;;;24.13;12.33;;;;;;;;;;6271724;22;20258;-53
2023/12/12 06:55:33;;;;;;;21.73;11.43;;;;;;;;;;6271041;22;20556;-57
2023/12/12 06:58:00;;;;;;;22.50;12.07;;;;;;;;;;6271109;22;20665;-55
2023/12/12 07:00:26;;;;;;;24.87;12.30;;;;;;;;;;6271278;22;20152;-55
2023/12/12 07:02:52;;;;;;;22.30;11.97;;;;;;;;;;6270193;22;20144;-56
2023/12/12 07:05:19;;;;;;;18.47;10.60;;;;;;;;;;6270378;22;20199;-57
2023/12/12 07:07:45;;;;;;;21.47;11.37;;;;;;;;;;6271872;22;20213;-56
2023/12/12 07:10:13;;;;;;;19.23;10.70;;;;;;;;;;6271135;22;20187;-58
2023/12/12 07:12:40;;;;;;;22.97;11.23;;;;;;;;;;6271901;22;20136;-56
2023/12/12 07:15:07;;;;;;;17.87;10.00;;;;;;;;;;6273185;22;20239;-53
2023/12/12 07:17:33;;;;;;;19.77;9.60;;;;;;;;;;6273363;22;20231;-57
2023/12/12 07:19:59;;;;;;;22.23;12.20;;;;;;;;;;6274189;22;20152;-58
2023/12/12 07:22:25;;;;;;;21.33;11.57;;;;;;;;;;6271992;22;20152;-56
2023/12/12 07:24:51;;;;;;;19.43;10.80;;;;;;;;;;6273515;22;20175;-57
2023/12/12 07:27:17;;;;;;;20.93;10.90;;;;;;;;;;6271892;22;20202;-58
2023/12/12 07:29:43;;;;;;;22.73;11.53;;;;;;;;;;6270492;22;20168;-58
2023/12/12 07:32:09;;;;;;;20.17;11.23;;;;;;;;;;6268586;22;20227;-58
2023/12/12 07:34:35;;;;;;;19.63;10.63;;;;;;;;;;6268474;22;20132;-58
2023/12/12 07:37:01;;;;;;;18.50;9.63;;;;;;;;;;6268998;22;20148;-54
2023/12/12 07:39:27;;;;;;;20.23;9.87;;;;;;;;;;6267926;22;20196;-57
2023/12/12 07:41:53;;;;;;;19.47;10.17;;;;;;;;;;6271261;22;20167;-55
2023/12/12 07:44:19;;;;;;;17.00;10.33;;;;;;;;;;6269230;22;20146;-57
2023/12/12 07:46:45;;;;;;;22.00;11.97;;;;;;;;;;6271434;22;20172;-57
2023/12/12 07:49:11;;;;;;;20.27;11.60;;;;;;;;;;6271160;22;20162;-55
2023/12/12 07:51:37;;;;;;;22.43;12.03;;;;;;;;;;6270552;22;20155;-58
2023/12/12 07:54:05;;;;;;;24.33;12.27;;;;;;;;;;6269798;22;20145;-55
2023/12/12 07:56:31;;;;;;;25.57;12.77;;;;;;;;;;6270126;22;20376;-58
2023/12/12 07:58:57;;;;;;;25.77;11.87;;;;;;;;;;6271805;22;20721;-53
2023/12/12 08:01:27;;;;;;;23.67;12.07;;;;;;;;;;6270344;22;20132;-57
2023/12/12 08:03:53;;;;;;;26.63;12.73;;;;;;;;;;6269085;22;20202;-55
2023/12/12 08:06:20;;;;;;;24.47;12.67;;;;;;;;;;6270084;22;20159;-57
2023/12/12 08:08:46;;;;;;;23.37;12.40;;;;;;;;;;6268994;22;20285;-58
2023/12/12 08:11:15;;;;;;;25.27;12.70;;;;;;;;;;6267885;22;20164;-58
2023/12/12 08:13:41;;;;;;;25.20;12.80;;;;;;;;;;6269203;22;20132;-54
2023/12/12 08:16:08;;;;;;;27.57;14.03;;;;;;;;;;6268580;22;20167;-53
2023/12/12 08:18:34;;;;;;;27.77;12.57;;;;;;;;;;6268330;22;20148;-53
2023/12/12 08:21:00;;;;;;;26.87;13.30;;;;;;;;;;6269092;22;20144;-56
2023/12/12 08:23:27;;;;;;;26.53;14.07;;;;;;;;;;6270531;22;20622;-56
2023/12/12 08:25:53;;;;;;;23.57;12.73;;;;;;;;;;6271878;22;20619;-54
2023/12/12 08:28:19;;;;;;;21.67;12.23;;;;;;;;;;6271186;22;20140;-55
2023/12/12 08:30:45;;;;;;;19.93;11.33;;;;;;;;;;6269853;22;20168;-53
2023/12/12 08:33:11;;;;;;;22.07;10.77;;;;;;;;;;6271780;22;20170;-57
2023/12/12 08:35:37;;;;;;;23.13;12.70;;;;;;;;;;6273298;22;20391;-58
2023/12/12 08:38:03;;;;;;;22.97;11.07;;;;;;;;;;6271536;22;20560;-57
2023/12/12 08:40:29;;;;;;;26.63;13.10;;;;;;;;;;6267364;22;20398;-55
2023/12/12 08:42:56;;;;;;;21.30;11.67;;;;;;;;;;6293941;22;20206;-55
2023/12/12 08:45:22;;;;;;;24.33;12.23;;;;;;;;;;6266576;22;20155;-58
2023/12/12 08:47:48;;;;;;;26.50;13.73;;;;;;;;;;6294215;22;20224;-53
2023/12/12 08:50:15;;;;;;;26.70;14.27;;;;;;;;;;6267040;22;20168;-56
2023/12/12 08:52:41;;;;;;;26.63;13.30;;;;;;;;;;6294150;22;20170;-58
2023/12/12 08:55:09;;;;;;;25.57;13.77;;;;;;;;;;6270489;22;20208;-55
2023/12/12 08:57:35;;;;;;;26.47;15.40;;;;;;;;;;6271523;22;20173;-55
2023/12/12 09:00:03;;;;;;;34.67;17.03;;;;;;;;;;6272262;22;20154;-54
2023/12/12 09:02:29;;;;;;;30.37;15.47;;;;;;;;;;6269135;22;20226;-56
2023/12/12 09:04:55;;;;;;;37.87;15.93;;;;;;;;;;6268813;22;20144;-56
2023/12/12 09:07:21;;;;;;;31.67;17.47;;;;;;;;;;6268926;22;20162;-54
2023/12/12 09:09:48;;;;;;;30.73;16.47;;;;;;;;;;6269320;22;20267;-56
2023/12/12 09:12:14;;;;;;;28.60;16.27;;;;;;;;;;6270884;22;20150;-53
2023/12/12 09:14:40;;;;;;;32.33;15.73;;;;;;;;;;6270296;22;20172;-54
2023/12/12 09:17:06;;;;;;;31.20;16.87;;;;;;;;;;6276082;22;20432;-52
2023/12/12 09:19:33;;;;;;;29.60;16.30;;;;;;;;;;6276033;22;20163;-55
2023/12/12 09:21:59;;;;;;;28.57;14.63;;;;;;;;;;6277058;22;20179;-57
2023/12/12 09:24:25;;;;;;;28.70;16.17;;;;;;;;;;6275920;22;20140;-55
2023/12/12 09:26:51;;;;;;;30.33;16.07;;;;;;;;;;6275358;22;20139;-51
2023/12/12 09:29:17;;;;;;;29.80;15.90;;;;;;;;;;6275975;22;20135;-54
2023/12/12 09:31:43;;;;;;;29.83;16.27;;;;;;;;;;6275983;22;20174;-57
2023/12/12 09:34:09;;;;;;;29.27;15.07;;;;;;;;;;6276259;22;20144;-55
2023/12/12 09:36:35;;;;;;;27.87;14.70;;;;;;;;;;6276741;22;20192;-57
2023/12/12 09:39:06;;;;;;;30.93;16.10;;;;;;;;;;6277805;22;20191;-56
2023/12/12 09:41:32;;;;;;;29.00;15.37;;;;;;;;;;6275373;22;20171;-56
2023/12/12 09:44:03;;;;;;;24.73;14.73;;;;;;;;;;6302171;22;20158;-56
2023/12/12 09:46:29;;;;;;;28.13;13.93;;;;;;;;;;6275042;22;20139;-54
2023/12/12 09:48:56;;;;;;;24.43;13.90;;;;;;;;;;6300894;22;20139;-55
2023/12/12 09:51:22;;;;;;;24.93;13.40;;;;;;;;;;6272718;22;20179;-57
2023/12/12 09:53:50;;;;;;;24.93;12.80;;;;;;;;;;6300108;22;20134;-55
2023/12/12 09:56:16;;;;;;;25.70;13.27;;;;;;;;;;6275983;22;20560;-56
2023/12/12 09:58:48;;;;;;;23.67;12.03;;;;;;;;;;6301930;22;20155;-56
2023/12/12 10:01:18;;;;;;;21.20;12.77;;;;;;;;;;6276402;22;20154;-57
2023/12/12 10:03:44;;;;;;;24.57;14.80;;;;;;;;;;6277862;22;20222;-57
2023/12/12 10:06:11;;;;;;;24.57;12.83;;;;;;;;;;6278307;22;20139;-54
2023/12/12 10:08:38;;;;;;;25.07;14.67;;;;;;;;;;6305712;22;20261;-57
2023/12/12 10:11:08;;;;;;;25.23;15.00;;;;;;;;;;6304660;22;20166;-57
2023/12/12 10:13:56;;;;;;;19.70;13.03;;;;;;;;;;6276059;22;20549;-54
2023/12/12 10:16:25;;;;;;;22.73;13.63;;;;;;;;;;6268736;22;20140;-56
2023/12/12 10:18:52;;;;;;;22.07;13.07;;;;;;;;;;6267407;22;20201;-56
2023/12/12 10:21:19;;;;;;;19.80;11.83;;;;;;;;;;6264509;22;20185;-52
2023/12/12 10:23:46;;;;;;;22.67;13.73;;;;;;;;;;6262463;22;20302;-57
2023/12/12 10:26:13;;;;;;;19.97;13.07;;;;;;;;;;6264074;22;20308;-56
2023/12/12 10:28:38;;;;;;;21.03;12.63;;;;;;;;;;6292224;22;20395;-56
2023/12/12 10:31:07;;;;;;;20.10;12.17;;;;;;;;;;6264692;22;20273;-55
2023/12/12 10:33:34;;;;;;;18.27;12.23;;;;;;;;;;6265412;22;20138;-55
2023/12/12 10:36:06;;;;;;;21.03;12.87;;;;;;;;;;6264226;22;20143;-58
2023/12/12 10:38:35;;;;;;;18.67;11.63;;;;;;;;;;6259356;22;20203;-55
2023/12/12 10:41:17;;;;;;;16.40;10.50;;;;;;;;;;6260670;22;20148;-58
2023/12/12 10:43:44;;;;;;;13.97;9.50;;;;;;;;;;6259711;22;20148;-54
2023/12/12 10:46:19;;;;;;;17.30;10.77;;;;;;;;;;6259441;22;20125;-57
2023/12/12 10:48:47;;;;;;;19.50;11.60;;;;;;;;;;6259549;22;20139;-56
2023/12/12 10:51:14;;;;;;;17.23;10.53;;;;;;;;;;6259953;22;20156;-58
2023/12/12 10:53:43;;;;;;;19.47;11.80;;;;;;;;;;6268880;22;20148;-57
2023/12/12 10:56:14;;;;;;;16.30;10.87;;;;;;;;;;6267855;22;20453;-56
2023/12/12 10:58:42;;;;;;;19.07;11.00;;;;;;;;;;6268918;22;20182;-56
2023/12/12 11:01:09;;;;;;;15.67;10.20;;;;;;;;;;6269928;22;20178;-56
2023/12/12 11:03:36;;;;;;;14.00;9.80;;;;;;;;;;6270900;22;20128;-55
2023/12/12 11:06:03;;;;;;;16.77;10.90;;;;;;;;;;6269886;22;20176;-60
2023/12/12 11:08:30;;;;;;;18.97;11.17;;;;;;;;;;6268657;22;20152;-59
2023/12/12 11:10:56;;;;;;;19.93;12.57;;;;;;;;;;6268552;22;20441;-59
2023/12/12 11:13:33;;;;;;;19.00;13.30;;;;;;;;;;6267878;22;20526;-59
2023/12/12 11:16:00;;;;;;;20.43;12.77;;;;;;;;;;6268413;22;20231;-55
2023/12/12 11:18:26;;;;;;;20.53;12.77;;;;;;;;;;6267233;22;20451;-56
2023/12/12 11:20:53;;;;;;;23.63;13.03;;;;;;;;;;6269126;22;20144;-57
2023/12/12 11:23:37;;;;;;;21.87;13.93;;;;;;;;;;6269242;22;20193;-55
2023/12/12 11:26:03;;;;;;;20.47;13.37;;;;;;;;;;6270393;22;20167;-54
2023/12/12 11:28:32;;;;;;;18.33;12.23;;;;;;;;;;6269267;22;20693;-55
2023/12/12 11:31:01;;;;;;;18.23;11.60;;;;;;;;;;6268973;22;20172;-55
2023/12/12 11:33:28;;;;;;;17.10;11.73;;;;;;;;;;6271982;22;20455;-58
2023/12/12 11:35:55;;;;;;;19.20;11.93;;;;;;;;;;6271019;22;20197;-54
2023/12/12 11:38:33;;;;;;;19.50;12.07;;;;;;;;;;6267982;22;20198;-56
2023/12/12 11:41:11;;;;;;;18.83;11.77;;;;;;;;;;6268208;22;20530;-57
2023/12/12 11:43:39;;;;;;;18.13;11.67;;;;;;;;;;6272048;22;20672;-56
2023/12/12 11:46:21;;;;;;;14.53;9.73;;;;;;;;;;6268259;22;20136;-57
2023/12/12 11:48:47;;;;;;;15.40;10.13;;;;;;;;;;6269210;22;20143;-57
2023/12/12 11:51:32;;;;;;;18.17;11.37;;;;;;;;;;6267484;22;20164;-58
2023/12/12 11:53:58;;;;;;;13.20;8.97;;;;;;;;;;6271374;22;20129;-56
2023/12/12 11:56:24;;;;;;;13.87;9.20;;;;;;;;;;6272205;22;20254;-57
2023/12/12 11:58:53;;;;;;;13.67;9.17;;;;;;;;;;6272387;22;20202;-58
2023/12/12 12:01:26;;;;;;;13.23;8.37;;;;;;;;;;6270562;22;20140;-57
2023/12/12 12:03:52;;;;;;;12.63;7.67;;;;;;;;;;6272502;22;20143;-54
2023/12/12 12:06:18;;;;;;;11.60;7.27;;;;;;;;;;6273312;22;20152;-57
2023/12/12 12:08:44;;;;;;;11.03;6.97;;;;;;;;;;6272783;22;20137;-55
2023/12/12 12:11:11;;;;;;;11.50;7.53;;;;;;;;;;6272221;22;20194;-56
2023/12/12 12:13:41;;;;;;;10.93;6.90;;;;;;;;;;6272860;22;20270;-54
2023/12/12 12:16:11;;;;;;;12.90;8.30;;;;;;;;;;6274252;22;20136;-57
2023/12/12 12:18:37;;;;;;;11.93;7.27;;;;;;;;;;6274644;22;20549;-56
2023/12/12 12:21:04;;;;;;;10.67;6.90;;;;;;;;;;6272358;22;20154;-56
2023/12/12 12:23:32;;;;;;;10.50;7.23;;;;;;;;;;6271309;22;20557;-58
2023/12/12 12:26:01;;;;;;;11.70;7.33;;;;;;;;;;6270583;22;20137;-56
2023/12/12 12:28:33;;;;;;;13.57;8.10;;;;;;;;;;6273132;22;20394;-55
2023/12/12 12:31:00;;;;;;;11.63;8.13;;;;;;;;;;6271919;22;20188;-58
2023/12/12 12:33:36;;;;;;;11.83;7.47;;;;;;;;;;6272050;22;20124;-58
2023/12/12 12:36:02;;;;;;;11.13;7.10;;;;;;;;;;6273180;22;20132;-57
2023/12/12 12:38:32;;;;;;;9.70;6.73;;;;;;;;;;6270914;22;20192;-58
2023/12/12 12:40:58;;;;;;;12.00;7.40;;;;;;;;;;6271105;22;20128;-57
2023/12/12 12:43:25;;;;;;;11.57;6.37;;;;;;;;;;6268363;22;20154;-54
2023/12/12 12:45:52;;;;;;;8.90;5.30;;;;;;;;;;6271805;22;20557;-57
2023/12/12 12:48:18;;;;;;;9.60;6.33;;;;;;;;;;6269631;22;20156;-56
2023/12/12 12:50:45;;;;;;;7.70;5.67;;;;;;;;;;6268376;22;20179;-56
2023/12/12 12:53:11;;;;;;;9.93;5.50;;;;;;;;;;6270412;22;20148;-57
2023/12/12 12:55:40;;;;;;;9.57;6.13;;;;;;;;;;6271448;22;20206;-58
2023/12/12 12:58:07;;;;;;;11.50;6.93;;;;;;;;;;6269924;22;20178;-57
2023/12/12 13:00:33;;;;;;;9.03;6.20;;;;;;;;;;6271202;22;20144;-58
2023/12/12 13:02:59;;;;;;;9.73;5.60;;;;;;;;;;6272127;22;20151;-58
2023/12/12 13:05:26;;;;;;;7.77;5.73;;;;;;;;;;6271364;22;20140;-56
2023/12/12 13:07:53;;;;;;;9.40;5.80;;;;;;;;;;6271287;22;20152;-57
2023/12/12 13:10:19;;;;;;;9.23;6.40;;;;;;;;;;6269843;22;20176;-56
2023/12/12 13:12:45;;;;;;;8.47;5.70;;;;;;;;;;6269643;22;20599;-57
2023/12/12 13:15:12;;;;;;;10.53;6.63;;;;;;;;;;6270382;22;20135;-58
2023/12/12 13:17:38;;;;;;;7.97;5.73;;;;;;;;;;6268873;22;20739;-56
2023/12/12 13:20:13;;;;;;;7.13;5.73;;;;;;;;;;6269361;22;20140;-57
2023/12/12 13:22:40;;;;;;;10.80;6.50;;;;;;;;;;6268185;22;20231;-55
2023/12/12 13:25:10;;;;;;;10.97;6.70;;;;;;;;;;6270808;22;20140;-58
2023/12/12 13:27:36;;;;;;;13.77;8.43;;;;;;;;;;6269833;22;20625;-58
2023/12/12 13:30:06;;;;;;;11.50;7.17;;;;;;;;;;6270473;22;20715;-57
2023/12/12 13:32:49;;;;;;;11.40;7.20;;;;;;;;;;6271719;22;20221;-58
2023/12/12 13:35:15;;;;;;;11.07;7.10;;;;;;;;;;6271461;22;20198;-57
2023/12/12 13:37:58;;;;;;;12.53;7.77;;;;;;;;;;6272330;22;20460;-52
2023/12/12 13:40:25;;;;;;;11.63;7.10;;;;;;;;;;6302146;22;20549;-56
2023/12/12 13:42:50;;;;;;;10.07;6.80;;;;;;;;;;6276401;22;20147;-58
2023/12/12 13:45:17;;;;;;;13.13;7.23;;;;;;;;;;6302117;22;20142;-54
2023/12/12 13:47:44;;;;;;;11.10;6.97;;;;;;;;;;6274332;22;20151;-58
2023/12/12 13:50:10;;;;;;;11.07;6.87;;;;;;;;;;6275061;22;20171;-56
2023/12/12 13:52:37;;;;;;;11.03;6.40;;;;;;;;;;6303345;22;20201;-56
2023/12/12 13:55:06;;;;;;;10.70;7.30;;;;;;;;;;6275049;22;20217;-58
2023/12/12 13:57:33;;;;;;;14.13;8.53;;;;;;;;;;6299768;22;20433;-57
2023/12/12 13:59:59;;;;;;;11.83;7.00;;;;;;;;;;6272779;22;20150;-57
2023/12/12 14:02:26;;;;;;;11.30;7.60;;;;;;;;;;6297024;22;20127;-57
2023/12/12 14:04:53;;;;;;;11.80;7.77;;;;;;;;;;6296476;22;20161;-58
2023/12/12 14:07:21;;;;;;;12.63;7.43;;;;;;;;;;6270592;22;20151;-58
2023/12/12 14:09:47;;;;;;;12.40;7.17;;;;;;;;;;6270726;22;20711;-57
2023/12/12 14:12:13;;;;;;;13.13;7.80;;;;;;;;;;6274010;22;20666;-57
2023/12/12 14:14:39;;;;;;;12.17;7.77;;;;;;;;;;6300746;22;20781;-55
2023/12/12 14:17:06;;;;;;;11.27;7.57;;;;;;;;;;6302134;22;20138;-58
2023/12/12 14:19:32;;;;;;;11.07;7.37;;;;;;;;;;6276084;22;20139;-56
2023/12/12 14:21:58;;;;;;;12.73;7.53;;;;;;;;;;6275429;22;20136;-57
2023/12/12 14:24:24;;;;;;;10.70;7.10;;;;;;;;;;6273801;22;20193;-57